createdAt,value
2023-05-13T00:03:16.657Z,8.81
2023-05-13T00:08:16.546Z,8.87
2023-05-13T00:13:16.542Z,8.81
2023-05-13T00:18:16.580Z,8.81
2023-05-13T00:23:16.529Z,8.81
2023-05-13T00:28:16.555Z,8.75
2023-05-13T00:33:16.528Z,8.81
2023-05-13T00:38:16.506Z,8.81
2023-05-13T00:43:16.516Z,8.81
2023-05-13T00:48:16.514Z,8.81
2023-05-13T00:53:16.534Z,8.75
2023-05-13T00:58:16.513Z,8.75
2023-05-13T01:03:16.584Z,8.68
2023-05-13T01:08:16.518Z,8.75
2023-05-13T01:13:16.471Z,8.68
2023-05-13T01:18:16.485Z,8.75
2023-05-13T01:23:16.508Z,8.68
2023-05-13T01:28:16.480Z,8.62
2023-05-13T01:33:16.473Z,8.62
2023-05-13T01:38:16.455Z,8.68
2023-05-13T01:43:16.465Z,8.62
2023-05-13T01:48:16.439Z,8.68
2023-05-13T01:53:16.433Z,8.62
2023-05-13T01:58:16.427Z,8.68
2023-05-13T02:03:16.551Z,8.75
2023-05-13T02:08:16.439Z,8.75
2023-05-13T02:13:16.397Z,8.68
2023-05-13T02:18:16.402Z,8.62
2023-05-13T02:23:16.409Z,8.62
2023-05-13T02:28:16.399Z,8.62
2023-05-13T02:33:16.399Z,8.68
2023-05-13T02:38:16.401Z,8.62
2023-05-13T02:43:16.388Z,8.56
2023-05-13T02:48:16.393Z,8.62
2023-05-13T02:53:16.411Z,8.56
2023-05-13T02:58:16.380Z,8.5
2023-05-13T03:03:16.444Z,8.56
2023-05-13T03:08:16.380Z,8.5
2023-05-13T03:13:16.345Z,8.56
2023-05-13T03:18:16.386Z,8.56
2023-05-13T03:23:16.339Z,8.56
2023-05-13T03:28:16.434Z,8.43
2023-05-13T03:33:16.350Z,8.43
2023-05-13T03:38:16.332Z,8.5
2023-05-13T03:43:16.331Z,8.43
2023-05-13T03:48:16.324Z,8.43
2023-05-13T03:53:16.315Z,8.31
2023-05-13T03:58:16.321Z,8.31
2023-05-13T04:03:16.393Z,8.25
2023-05-13T04:08:16.300Z,8.31
2023-05-13T04:13:16.304Z,8.18
2023-05-13T04:18:16.301Z,8.12
2023-05-13T04:23:16.298Z,8.12
2023-05-13T04:28:16.281Z,8.18
2023-05-13T04:33:16.281Z,8.25
2023-05-13T04:38:16.296Z,8.18
2023-05-13T04:43:16.288Z,8.25
2023-05-13T04:48:16.301Z,8.25
2023-05-13T04:53:16.301Z,8.18
2023-05-13T04:58:16.244Z,8.31
2023-05-13T05:08:16.244Z,8.25
2023-05-13T05:13:16.233Z,8.25
2023-05-13T05:23:16.239Z,8.31
2023-05-13T05:28:16.218Z,8.43
2023-05-13T05:33:16.230Z,8.5
2023-05-13T05:38:16.209Z,8.43
2023-05-13T05:48:16.192Z,8.56
2023-05-13T06:08:16.181Z,8.81
2023-05-13T06:13:16.166Z,8.93
2023-05-13T06:18:16.167Z,8.87
2023-05-13T06:38:16.155Z,8.93
2023-05-13T06:43:16.141Z,8.81
2023-05-13T06:48:16.156Z,8.87
2023-05-13T06:58:16.127Z,8.93
2023-05-13T07:03:16.129Z,9.18
2023-05-13T07:13:16.104Z,9.18
2023-05-13T07:43:16.086Z,9.37
2023-05-13T07:48:16.078Z,9.56
2023-05-13T07:53:17.712Z,9.75
2023-05-13T07:58:16.073Z,9.75
2023-05-13T08:03:16.152Z,9.87
2023-05-13T08:08:16.073Z,9.75
2023-05-13T08:13:16.056Z,9.75
2023-05-13T08:18:16.046Z,10.43
2023-05-13T08:23:16.051Z,10.25
2023-05-13T08:28:16.028Z,10.12
2023-05-13T08:33:16.029Z,9.87
2023-05-13T08:38:16.013Z,9.93
2023-05-13T08:43:16.030Z,10.18
2023-05-13T08:48:16.066Z,11
2023-05-13T08:53:16.021Z,11.56
2023-05-13T08:58:16.008Z,11.31
2023-05-13T09:03:16.009Z,12.12
2023-05-13T09:13:15.983Z,11.25
2023-05-13T09:18:18.627Z,11.12
2023-05-13T09:38:15.964Z,10.93
2023-05-13T09:43:15.942Z,11.81
2023-05-13T09:48:15.944Z,12
2023-05-13T09:53:15.919Z,11.81
2023-05-13T10:08:15.909Z,11.5
2023-05-13T10:33:15.877Z,13.06
2023-05-13T10:48:15.956Z,12.62
2023-05-13T11:18:15.838Z,13.56
2023-05-13T11:48:15.799Z,13.87
2023-05-13T12:13:15.760Z,15.31
2023-05-13T12:18:15.773Z,15.56
2023-05-13T12:23:15.765Z,15.56
2023-05-13T12:28:15.768Z,15.43
2023-05-13T12:33:16.431Z,15
2023-05-13T12:38:15.748Z,14.81
2023-05-13T12:43:15.719Z,14.5
2023-05-13T12:48:15.716Z,13.81
2023-05-13T12:53:15.731Z,14.12
2023-05-13T12:58:15.719Z,14.43
2023-05-13T13:03:15.974Z,14.68
2023-05-13T13:08:15.697Z,14.37
2023-05-13T13:13:15.698Z,14.5
2023-05-13T13:18:15.686Z,14.75
2023-05-13T13:23:15.687Z,14.81
2023-05-13T13:28:15.685Z,15.06
2023-05-13T13:33:15.702Z,15
2023-05-13T13:38:15.687Z,14.75
2023-05-13T13:43:15.654Z,15.31
2023-05-13T13:48:15.723Z,15.56
2023-05-13T13:53:15.653Z,15.68
2023-05-13T13:58:15.654Z,16.06
2023-05-13T14:03:15.691Z,16.43
2023-05-13T14:08:15.636Z,17.43
2023-05-13T14:13:15.636Z,17.06
2023-05-13T14:18:15.678Z,17
2023-05-13T14:23:15.601Z,15.93
2023-05-13T14:28:15.622Z,16.12
2023-05-13T14:33:15.599Z,15.87
2023-05-13T14:38:15.593Z,15.81
2023-05-13T14:43:15.587Z,15.56
2023-05-13T14:48:15.608Z,15.62
2023-05-13T14:53:15.556Z,15.43
2023-05-13T14:58:15.553Z,15.12
2023-05-13T15:03:15.564Z,15.93
2023-05-13T15:08:15.566Z,15.56
2023-05-13T15:13:15.556Z,15.81
2023-05-13T15:18:15.536Z,15.75
2023-05-13T15:23:15.510Z,15.25
2023-05-13T15:28:15.519Z,15.56
2023-05-13T15:33:15.578Z,15.5
2023-05-13T15:38:15.520Z,15.43
2023-05-13T15:43:15.504Z,15.68
2023-05-13T15:48:15.501Z,15.62
2023-05-13T15:53:15.485Z,15.43
2023-05-13T15:58:15.505Z,15.37
2023-05-13T16:03:15.480Z,15.62
2023-05-13T16:08:15.472Z,15.62
2023-05-13T16:13:15.454Z,15.87
2023-05-13T16:18:15.472Z,15.81
2023-05-13T16:23:15.448Z,16.25
2023-05-13T16:28:15.450Z,15.62
2023-05-13T16:33:15.443Z,15.75
2023-05-13T16:38:15.435Z,15.62
2023-05-13T16:43:15.433Z,15.68
2023-05-13T16:48:15.488Z,15.62
2023-05-13T16:53:15.421Z,15.5
2023-05-13T16:58:15.388Z,15.37
2023-05-13T17:03:15.607Z,15.25
2023-05-13T17:08:15.537Z,15.31
2023-05-13T17:13:15.401Z,15.25
2023-05-13T17:18:15.387Z,15.25
2023-05-13T17:23:15.397Z,15.18
2023-05-13T17:28:15.362Z,14.81
2023-05-13T17:33:15.366Z,13.68
2023-05-13T17:38:15.366Z,12.75
2023-05-13T17:43:15.337Z,12.75
2023-05-13T17:48:15.454Z,12.43
2023-05-13T17:53:15.331Z,12.31
2023-05-13T17:58:15.342Z,12.18
2023-05-13T18:03:15.313Z,12.25
2023-05-13T18:08:15.321Z,12.18
2023-05-13T18:13:15.307Z,11.87
2023-05-13T18:18:15.303Z,11.81
2023-05-13T18:23:15.300Z,11.68
2023-05-13T18:28:15.319Z,11.56
2023-05-13T18:33:15.286Z,11.75
2023-05-13T18:38:15.294Z,11.62
2023-05-13T18:43:15.284Z,10.93
2023-05-13T18:48:15.284Z,10.93
2023-05-13T18:53:15.278Z,10.68
2023-05-13T18:58:15.275Z,10.62
2023-05-13T19:03:15.325Z,10.56
2023-05-13T19:08:16.818Z,10.56
2023-05-13T19:18:15.252Z,10.75
2023-05-13T19:28:15.223Z,10.81
2023-05-13T19:38:15.214Z,10.81
2023-05-13T19:43:15.197Z,10.93
2023-05-13T19:48:15.234Z,10.81
2023-05-13T20:18:15.220Z,10.43
2023-05-13T20:48:15.136Z,10.25
2023-05-13T21:03:15.172Z,10.31
2023-05-13T21:23:15.084Z,10.31
2023-05-13T21:53:15.054Z,9.62
2023-05-13T21:58:15.050Z,9.56
2023-05-13T22:08:15.043Z,9.37
2023-05-13T22:13:15.059Z,9.43
2023-05-13T22:18:15.105Z,9.37
2023-05-13T22:23:15.024Z,9.25
2023-05-13T22:28:15.057Z,9.12
2023-05-13T22:33:15.035Z,9.12
2023-05-13T22:38:15.032Z,9
2023-05-13T22:43:15.042Z,8.93
2023-05-13T22:48:15.011Z,8.93
2023-05-13T22:53:15.007Z,8.93
2023-05-13T22:58:15.003Z,8.93
2023-05-13T23:03:15.006Z,9.06
2023-05-13T23:08:14.992Z,9.18
2023-05-13T23:13:14.998Z,9.25
2023-05-13T23:18:14.994Z,9.18
2023-05-13T23:23:14.989Z,9.18
2023-05-13T23:28:14.964Z,9.18
2023-05-13T23:33:14.984Z,9.12
2023-05-13T23:38:14.982Z,8.93
2023-05-13T23:43:14.961Z,8.81
2023-05-13T23:48:14.962Z,8.75
2023-05-13T23:53:14.946Z,8.68
